Terminal Aerodrome Forecast
Issued by NWS New Orleans/Baton Rouge, LA

Home | Current Version | Previous Version | Text Only | Print | Product List | Glossary On
Versions: 1 2 3 4 5 6 7 8 9 10 11 12 13 14 15 16 17 18 19 20 21 22 23 24 25 26 27 28
000
FTUS44 KLIX 302321
TAFNEW
TAF
KNEW 302321Z 3100/3124 14009KT P6SM BKN150
     FM310200 19005KT P6SM BKN250
     FM311400 VRB04KT P6SM VCSH SCT030
     FM311700 27006KT 5SM -RA BKN030
      TEMPO 3118/3122 VRB15G30KT 1SM TSRA BKN015CB OVC030=

USA.gov is the U.S. government's official web portal to all federal, state and local government web resources and services.